Time;durP1;ratioP1;P1;durP2;ratioP2;P2;SDS_P1;SDS_P2;PMS_P1;PMS_P2;Temp;Humidity;BMP_temperature;BMP_pressure;BME280_temperature;BME280_humidity;BME280_pressure;Samples;Min_cycle;Max_cycle;Signal;HPM_P1;HPM_P2
2023/01/04 00:00:02;;;;;;;;;;;;;;;7.50;100.00;101962.53;4993795;28;19931;-66
2023/01/04 00:02:27;;;;;;;;;;;;;;;7.49;100.00;101958.22;4992884;28;19998;-66
2023/01/04 00:04:52;;;;;;;;;;;;;;;7.45;100.00;101950.44;4992967;28;20418;-66
2023/01/04 00:07:17;;;;;;;;;;;;;;;7.43;100.00;101947.88;4993459;28;19960;-66
2023/01/04 00:09:43;;;;;;;;;;;;;;;7.37;100.00;101939.22;4993409;28;19914;-66
2023/01/04 00:12:08;;;;;;;;;;;;;;;7.40;100.00;101940.09;4992133;28;20004;-66
2023/01/04 00:14:33;;;;;;;;;;;;;;;7.37;100.00;101934.91;4993054;28;19914;-66
2023/01/04 00:16:58;;;;;;;;;;;;;;;7.38;100.00;101936.63;4992806;28;20013;-66
2023/01/04 00:19:23;;;;;;;;;;;;;;;7.36;100.00;101927.19;4990470;28;19917;-67
2023/01/04 00:21:49;;;;;;;;;;;;;;;7.35;100.00;101923.72;4965591;28;19917;-66
2023/01/04 00:24:14;;;;;;;;;;;;;;;7.35;100.00;101921.16;4986923;28;19956;-67
2023/01/04 00:26:39;;;;;;;;;;;;;;;7.34;100.00;101918.56;4992778;28;20000;-67
2023/01/04 00:29:06;;;;;;;;;;;;;;;7.32;100.00;101907.34;4993060;28;19915;-67
2023/01/04 00:31:31;;;;;;;;;;;;;;;7.33;100.00;101909.94;4992181;28;19918;-67
2023/01/04 00:33:58;;;;;;;;;;;;;;;7.33;100.00;101902.22;4990212;28;19922;-67
2023/01/04 00:36:23;;;;;;;;;;;;;;;7.30;100.00;101893.63;4991738;28;20553;-66
2023/01/04 00:39:05;;;;;;;;;;;;;;;7.31;100.00;101885.00;4992688;28;19914;-66
2023/01/04 00:41:34;;;;;;;;;;;;;;;7.30;100.00;101873.81;4983274;28;19920;-66
2023/01/04 00:44:02;;;;;;;;;;;;;;;7.33;100.00;101880.72;4997119;28;19918;-66
2023/01/04 00:46:27;;;;;;;;;;;;;;;7.33;100.00;101867.81;4995956;28;19920;-67
2023/01/04 00:48:52;;;;;;;;;;;;;;;7.33;100.00;101862.66;4985946;28;19914;-67
2023/01/04 00:51:17;;;;;;;;;;;;;;;7.32;100.00;101861.81;4993045;28;20380;-67
2023/01/04 00:53:42;;;;;;;;;;;;;;;7.40;100.00;101872.16;4995753;28;20265;-67
2023/01/04 00:56:08;;;;;;;;;;;;;;;7.38;100.00;101860.97;4996553;28;19988;-67
2023/01/04 00:58:33;;;;;;;;;;;;;;;7.40;100.00;101869.59;4995915;28;19922;-67
2023/01/04 01:01:03;;;;;;;;;;;;;;;7.41;100.00;101851.56;4995921;28;19937;-66
2023/01/04 01:03:28;;;;;;;;;;;;;;;7.42;100.00;101844.69;4993764;28;20415;-67
2023/01/04 01:05:53;;;;;;;;;;;;;;;7.43;100.00;101833.50;4996129;28;19914;-67
2023/01/04 01:08:24;;;;;;;;;;;;;;;7.45;100.00;101845.53;4995651;28;19945;-67
2023/01/04 01:10:50;;;;;;;;;;;;;;;7.47;100.00;101833.53;4995439;28;19922;-68
2023/01/04 01:13:16;;;;;;;;;;;;;;;7.48;100.00;101819.78;4995207;28;19929;-67
2023/01/04 01:15:41;;;;;;;;;;;;;;;7.51;100.00;101826.66;4997188;28;19909;-68
2023/01/04 01:18:06;;;;;;;;;;;;;;;7.51;100.00;101830.09;4987809;28;19921;-68
2023/01/04 01:20:31;;;;;;;;;;;;;;;7.53;100.00;101830.97;4990822;28;19916;-68
2023/01/04 01:22:56;;;;;;;;;;;;;;;7.58;100.00;101812.91;4994844;28;19913;-67
2023/01/04 01:25:22;;;;;;;;;;;;;;;7.64;100.00;101814.69;4994689;28;20013;-68
2023/01/04 01:27:47;;;;;;;;;;;;;;;7.63;100.00;101821.56;4994604;28;20294;-68
2023/01/04 01:30:12;;;;;;;;;;;;;;;7.61;100.00;101823.25;4995221;28;19920;-71
2023/01/04 01:32:37;;;;;;;;;;;;;;;7.64;100.00;101825.88;4974470;28;19917;-71
2023/01/04 01:35:03;;;;;;;;;;;;;;;7.63;100.00;101824.16;4990192;28;20380;-71
2023/01/04 01:37:28;;;;;;;;;;;;;;;7.63;100.00;101811.25;4990600;28;20033;-71
2023/01/04 01:39:53;;;;;;;;;;;;;;;7.67;100.00;101809.50;4991366;28;19914;-71
2023/01/04 01:42:19;;;;;;;;;;;;;;;7.68;100.00;101806.94;4991642;28;20379;-71
2023/01/04 01:44:45;;;;;;;;;;;;;;;7.71;100.00;101806.94;4993946;28;20000;-71
2023/01/04 01:47:16;;;;;;;;;;;;;;;7.74;100.00;101804.38;4988578;28;20005;-71
2023/01/04 01:49:42;;;;;;;;;;;;;;;7.74;100.00;101812.13;4984479;28;19914;-71
2023/01/04 01:52:10;;;;;;;;;;;;;;;7.77;100.00;101795.81;4993478;28;19944;-70
2023/01/04 01:54:38;;;;;;;;;;;;;;;7.76;100.00;101784.63;4991651;28;19917;-70
2023/01/04 01:57:04;;;;;;;;;;;;;;;7.79;100.00;101794.94;4991996;28;19967;-71
2023/01/04 01:59:31;;;;;;;;;;;;;;;7.79;100.00;101791.50;4992866;28;19913;-71
2023/01/04 02:01:56;;;;;;;;;;;;;;;7.83;100.00;101788.06;4988522;28;20269;-70
2023/01/04 02:04:21;;;;;;;;;;;;;;;7.81;100.00;101793.22;4985530;28;20383;-70
2023/01/04 02:06:48;;;;;;;;;;;;;;;7.82;100.00;101782.06;4989112;28;19910;-70
2023/01/04 02:09:14;;;;;;;;;;;;;;;7.82;100.00;101787.22;4988732;28;20336;-71
2023/01/04 02:11:39;;;;;;;;;;;;;;;7.84;100.00;101790.66;4991800;28;20285;-70
2023/01/04 02:16:56;;;;;;;;;;;;;;;7.87;100.00;101798.41;4994179;28;19964;-71
2023/01/04 02:19:40;;;;;;;;;;;;;;;7.92;100.00;101788.94;4991197;28;20441;-71
2023/01/04 02:22:24;;;;;;;;;;;;;;;7.91;100.00;101791.53;4992746;28;19918;-71
2023/01/04 02:25:09;;;;;;;;;;;;;;;7.93;100.00;101782.06;4990745;28;19914;-71
2023/01/04 02:27:53;;;;;;;;;;;;;;;7.96;100.00;101776.06;4991395;28;19920;-71
2023/01/04 02:30:18;;;;;;;;;;;;;;;7.97;100.00;101777.78;4972695;28;19949;-71
2023/01/04 02:32:46;;;;;;;;;;;;;;;7.98;100.00;101775.22;4990831;28;20412;-72
2023/01/04 02:35:14;;;;;;;;;;;;;;;7.99;100.00;101768.31;4983367;28;19949;-72
2023/01/04 02:37:51;;;;;;;;;;;;;;;8.01;100.00;101767.47;4993342;28;19916;-72
2023/01/04 02:40:25;;;;;;;;;;;;;;;8.06;100.00;101768.31;4987939;28;19934;-71
2023/01/04 02:45:43;;;;;;;;;;;;;;;8.05;100.00;101745.94;4993726;28;19916;-71
2023/01/04 02:50:55;;;;;;;;;;;;;;;8.17;100.00;101745.09;4993045;28;19932;-72
2023/01/04 02:53:41;;;;;;;;;;;;;;;8.16;100.00;101733.03;4991444;28;19922;-72
2023/01/04 02:56:34;;;;;;;;;;;;;;;8.14;100.00;101733.03;4992043;28;19937;-71
2023/01/04 02:59:02;;;;;;;;;;;;;;;8.25;100.00;101718.44;4989200;28;20008;-71
2023/01/04 03:07:26;;;;;;;;;;;;;;;8.25;100.00;101717.56;4992791;28;20029;-71
2023/01/04 03:09:55;;;;;;;;;;;;;;;8.27;100.00;101715.81;4976504;28;20396;-71
2023/01/04 03:12:31;;;;;;;;;;;;;;;8.31;100.00;101710.72;4990268;28;20345;-70
2023/01/04 03:15:00;;;;;;;;;;;;;;;8.29;100.00;101714.97;4988748;28;19917;-71
2023/01/04 03:17:26;;;;;;;;;;;;;;;8.35;100.00;101708.09;4976050;28;19914;-71
2023/01/04 03:19:53;;;;;;;;;;;;;;;8.32;100.00;101693.50;4986688;28;19917;-71
2023/01/04 03:36:23;;;;;;;;;;;;;;;8.59;100.00;101680.53;4993314;28;20277;-68
2023/01/04 03:50:37;;;;;;;;;;;;;;;8.59;100.00;101661.59;4990069;28;20387;-68
2023/01/04 03:53:02;;;;;;;;;;;;;;;8.58;100.00;101655.56;4990845;28;19958;-68
2023/01/04 03:55:30;;;;;;;;;;;;;;;8.68;100.00;101651.19;4993213;28;19981;-68
2023/01/04 03:57:56;;;;;;;;;;;;;;;8.64;100.00;101649.50;4992538;28;19956;-68
2023/01/04 04:00:22;;;;;;;;;;;;;;;8.67;100.00;101641.72;4991989;28;19976;-69
2023/01/04 04:02:47;;;;;;;;;;;;;;;8.69;100.00;101629.66;4990060;28;20292;-70
2023/01/04 04:10:44;;;;;;;;;;;;;;;8.87;100.00;101641.69;4990922;28;19972;-69
2023/01/04 04:13:09;;;;;;;;;;;;;;;8.94;100.00;101643.38;4987054;28;19968;-69
2023/01/04 04:15:35;;;;;;;;;;;;;;;8.83;100.00;101635.63;4981474;28;19916;-70
2023/01/04 04:18:00;;;;;;;;;;;;;;;8.89;100.00;101637.34;4990862;28;19918;-70
2023/01/04 04:20:26;;;;;;;;;;;;;;;8.82;100.00;101645.97;4990986;28;19920;-69
2023/01/04 04:22:51;;;;;;;;;;;;;;;8.81;100.00;101624.44;4990338;28;19968;-69
2023/01/04 04:25:16;;;;;;;;;;;;;;;8.85;100.00;101625.31;4989998;28;20021;-69
2023/01/04 04:27:41;;;;;;;;;;;;;;;8.83;100.00;101625.31;4989744;28;19922;-70
2023/01/04 04:30:07;;;;;;;;;;;;;;;8.84;100.00;101627.03;4992307;28;20335;-69
2023/01/04 04:32:32;;;;;;;;;;;;;;;8.95;100.00;101621.78;4973913;28;19943;-70
2023/01/04 04:34:57;;;;;;;;;;;;;;;8.91;100.00;101628.72;4989912;28;19914;-70
2023/01/04 04:37:24;;;;;;;;;;;;;;;8.91;100.00;101631.31;4990910;28;19976;-70
2023/01/04 04:39:49;;;;;;;;;;;;;;;8.93;100.00;101613.22;4969060;28;19913;-70
2023/01/04 04:42:14;;;;;;;;;;;;;;;8.93;100.00;101603.72;4983425;28;20335;-70
2023/01/04 04:44:39;;;;;;;;;;;;;;;8.91;100.00;101600.28;4991391;28;20292;-70
2023/01/04 04:47:04;;;;;;;;;;;;;;;8.92;100.00;101595.97;4990002;28;19952;-70
2023/01/04 04:49:31;;;;;;;;;;;;;;;8.93;100.00;101606.31;4989681;28;19952;-70
2023/01/04 04:51:56;;;;;;;;;;;;;;;8.95;100.00;101598.53;4988607;28;19924;-70
2023/01/04 04:54:21;;;;;;;;;;;;;;;8.94;100.00;101596.84;4986582;28;19925;-70
2023/01/04 04:56:47;;;;;;;;;;;;;;;8.99;100.00;101600.25;4991015;28;19953;-69
2023/01/04 04:59:13;;;;;;;;;;;;;;;8.99;100.00;101597.66;4992270;28;19920;-67
2023/01/04 05:01:38;;;;;;;;;;;;;;;9.04;100.00;101598.50;4985371;28;19921;-67
2023/01/04 05:04:03;;;;;;;;;;;;;;;9.03;100.00;101589.00;4991906;28;19921;-67
2023/01/04 05:06:28;;;;;;;;;;;;;;;9.11;100.00;101582.06;4986930;28;19925;-67
2023/01/04 05:08:54;;;;;;;;;;;;;;;9.13;100.00;101584.66;4988896;28;20284;-67
2023/01/04 05:14:03;;;;;;;;;;;;;;;9.11;100.00;101579.47;4993859;28;20391;-68
2023/01/04 05:16:28;;;;;;;;;;;;;;;9.14;100.00;101576.03;4992729;28;19918;-68
2023/01/04 05:18:54;;;;;;;;;;;;;;;9.14;100.00;101569.13;4991803;28;20291;-68
2023/01/04 05:21:19;;;;;;;;;;;;;;;9.20;100.00;101574.25;4993307;28;20375;-67
2023/01/04 05:23:44;;;;;;;;;;;;;;;9.18;100.00;101565.66;4977148;28;19914;-68
2023/01/04 05:26:09;;;;;;;;;;;;;;;9.19;100.00;101558.75;4997970;28;19913;-68
2023/01/04 05:28:35;;;;;;;;;;;;;;;9.24;100.00;101552.66;4996374;28;20027;-67
2023/01/04 05:31:00;;;;;;;;;;;;;;;9.24;100.00;101556.97;4991987;28;20410;-68
2023/01/04 05:33:30;;;;;;;;;;;;;;;9.24;100.00;101563.03;4994716;28;19914;-68
2023/01/04 05:35:56;;;;;;;;;;;;;;;9.28;100.00;101546.59;4994281;28;19939;-67
2023/01/04 05:38:22;;;;;;;;;;;;;;;9.28;100.00;101546.59;4996205;28;19914;-67
2023/01/04 05:40:47;;;;;;;;;;;;;;;9.33;100.00;101552.63;4995674;28;19920;-68
2023/01/04 05:43:13;;;;;;;;;;;;;;;9.38;100.00;101548.25;4996495;28;19926;-68
2023/01/04 05:45:39;;;;;;;;;;;;;;;9.38;100.00;101539.63;4997426;28;19961;-68
2023/01/04 05:48:05;;;;;;;;;;;;;;;9.36;100.00;101531.88;4991040;28;19913;-68
2023/01/04 05:50:30;;;;;;;;;;;;;;;9.39;100.00;101534.47;4991178;28;20219;-68
2023/01/04 05:52:55;;;;;;;;;;;;;;;9.41;100.00;101537.91;4991001;28;20338;-68
2023/01/04 05:55:20;;;;;;;;;;;;;;;9.48;100.00;101521.41;4996720;28;19913;-68
2023/01/04 05:57:46;;;;;;;;;;;;;;;9.44;100.00;101529.22;4996687;28;19921;-67
2023/01/04 06:00:12;;;;;;;;;;;;;;;9.43;100.00;101541.31;4994980;28;19917;-68
2023/01/04 06:02:37;;;;;;;;;;;;;;;9.46;100.00;101525.78;4995351;28;19921;-68
2023/01/04 06:05:04;;;;;;;;;;;;;;;9.47;100.00;101516.28;4994552;28;19914;-68
2023/01/04 06:07:29;;;;;;;;;;;;;;;9.46;100.00;101510.25;4993333;28;19913;-68
2023/01/04 06:09:54;;;;;;;;;;;;;;;9.46;100.00;101512.84;4992513;28;19936;-70
2023/01/04 06:12:20;;;;;;;;;;;;;;;9.47;100.00;101506.78;4981432;28;19918;-70
2023/01/04 06:14:45;;;;;;;;;;;;;;;9.51;100.00;101520.56;4985901;28;19914;-70
2023/01/04 06:17:10;;;;;;;;;;;;;;;9.53;100.00;101531.75;4994087;28;19918;-70
2023/01/04 06:19:36;;;;;;;;;;;;;;;9.56;100.00;101528.25;4990752;28;19949;-70
2023/01/04 06:22:01;;;;;;;;;;;;;;;9.55;100.00;101530.03;4991593;28;19997;-71
2023/01/04 06:24:26;;;;;;;;;;;;;;;9.55;100.00;101514.50;4992714;28;19917;-72
2023/01/04 06:26:51;;;;;;;;;;;;;;;9.76;100.00;101510.81;4993770;28;19920;-71
2023/01/04 06:29:17;;;;;;;;;;;;;;;9.61;100.00;101513.59;4991736;28;20000;-71
2023/01/04 06:31:42;;;;;;;;;;;;;;;9.69;100.00;101510.03;4991931;28;20058;-71
2023/01/04 06:34:09;;;;;;;;;;;;;;;9.72;100.00;101511.75;4991558;28;19976;-71
2023/01/04 06:36:35;;;;;;;;;;;;;;;9.67;100.00;101510.94;4991439;28;19924;-71
2023/01/04 06:39:00;;;;;;;;;;;;;;;9.67;100.00;101510.94;4988604;28;20381;-71
2023/01/04 06:41:25;;;;;;;;;;;;;;;9.66;100.00;101509.22;4990977;28;20451;-71
2023/01/04 06:43:51;;;;;;;;;;;;;;;9.72;100.00;101519.50;4994096;28;19909;-71
2023/01/04 06:46:16;;;;;;;;;;;;;;;9.71;100.00;101520.38;4991547;28;19910;-71
2023/01/04 06:48:41;;;;;;;;;;;;;;;9.70;100.00;101529.88;4974014;28;19914;-71
2023/01/04 06:51:06;;;;;;;;;;;;;;;9.74;100.00;101530.72;4984863;28;19957;-70
2023/01/04 06:53:31;;;;;;;;;;;;;;;9.77;100.00;101516.00;4989414;28;20020;-71
2023/01/04 06:55:57;;;;;;;;;;;;;;;9.82;100.00;101524.59;4992973;28;19975;-70
2023/01/04 06:58:22;;;;;;;;;;;;;;;9.76;100.00;101536.72;4991975;28;20400;-70
2023/01/04 07:00:49;;;;;;;;;;;;;;;9.77;100.00;101512.53;4984986;28;20270;-70
2023/01/04 07:03:14;;;;;;;;;;;;;;;9.76;100.00;101511.69;4989219;28;19914;-70
2023/01/04 07:05:39;;;;;;;;;;;;;;;9.83;100.00;101510.75;4992908;28;19914;-70
2023/01/04 07:08:08;;;;;;;;;;;;;;;9.94;100.00;101495.13;4989210;28;20333;-70
2023/01/04 07:10:33;;;;;;;;;;;;;;;9.92;100.00;101517.56;4984255;28;20004;-71
2023/01/04 07:12:59;;;;;;;;;;;;;;;9.84;100.00;101517.66;4990570;28;20025;-70
2023/01/04 07:15:24;;;;;;;;;;;;;;;9.86;100.00;101489.16;4982496;28;19914;-70
2023/01/04 07:17:49;;;;;;;;;;;;;;;9.83;100.00;101505.56;4986921;28;19932;-70
2023/01/04 07:20:15;;;;;;;;;;;;;;;9.92;100.00;101489.09;4991894;28;19968;-70
2023/01/04 07:22:40;;;;;;;;;;;;;;;9.95;100.00;101498.56;4990258;28;19917;-69
2023/01/04 07:25:05;;;;;;;;;;;;;;;9.95;100.00;101496.84;4990471;28;19999;-70
2023/01/04 07:27:30;;;;;;;;;;;;;;;9.98;100.00;101482.97;4991704;28;19913;-69
2023/01/04 07:29:56;;;;;;;;;;;;;;;10.02;100.00;101495.03;4992196;28;20112;-69
2023/01/04 07:32:21;;;;;;;;;;;;;;;10.05;100.00;101485.50;4980378;28;20008;-68
2023/01/04 07:34:46;;;;;;;;;;;;;;;10.09;100.00;101488.94;4985878;28;19910;-69
2023/01/04 07:37:12;;;;;;;;;;;;;;;10.13;100.00;101480.22;4988563;28;20008;-68
2023/01/04 07:39:37;;;;;;;;;;;;;;;10.24;100.00;101471.47;4992602;28;19910;-67
2023/01/04 07:42:02;;;;;;;;;;;;;;;10.25;100.00;101472.34;4990950;28;19968;-66
2023/01/04 07:44:28;;;;;;;;;;;;;;;10.30;100.00;101463.63;4993310;28;19909;-66
2023/01/04 07:46:53;;;;;;;;;;;;;;;10.34;100.00;101461.00;4998341;28;19920;-66
2023/01/04 07:49:19;;;;;;;;;;;;;;;10.40;100.00;101471.28;4993637;28;19957;-66
2023/01/04 07:51:47;;;;;;;;;;;;;;;10.40;100.00;101460.94;4991914;28;20020;-66
2023/01/04 07:54:13;;;;;;;;;;;;;;;10.45;100.00;101456.53;4989078;28;20218;-66
2023/01/04 07:56:38;;;;;;;;;;;;;;;10.47;100.00;101426.28;4990595;28;20391;-66
2023/01/04 07:59:05;;;;;;;;;;;;;;;10.46;100.00;101448.75;4989390;28;19917;-66
2023/01/04 08:01:30;;;;;;;;;;;;;;;10.51;100.00;101435.72;4993173;28;19957;-66
2023/01/04 08:03:56;;;;;;;;;;;;;;;10.50;100.00;101449.56;4994271;28;19914;-66
2023/01/04 08:06:21;;;;;;;;;;;;;;;10.65;100.00;101439.81;4992454;28;19917;-66
2023/01/04 08:08:47;;;;;;;;;;;;;;;10.59;100.00;101439.06;4992762;28;19916;-66
2023/01/04 08:11:16;;;;;;;;;;;;;;;10.59;100.00;101442.50;4989290;28;19979;-66
2023/01/04 08:13:42;;;;;;;;;;;;;;;10.65;100.00;101431.19;4989564;28;20043;-66
2023/01/04 08:16:07;;;;;;;;;;;;;;;10.69;100.00;101453.63;4991860;28;19949;-66
2023/01/04 08:18:33;;;;;;;;;;;;;;;10.79;100.00;101452.59;4995314;28;20340;-66
2023/01/04 08:21:05;;;;;;;;;;;;;;;10.88;100.00;101442.09;4993556;28;19920;-65
2023/01/04 08:23:30;;;;;;;;;;;;;;;10.75;100.00;101447.47;4988020;28;20376;-65
2023/01/04 08:26:00;;;;;;;;;;;;;;;10.76;100.00;101457.84;4993964;28;20055;-65
2023/01/04 08:28:26;;;;;;;;;;;;;;;10.82;100.00;101438.72;4990785;28;20411;-66
2023/01/04 08:30:51;;;;;;;;;;;;;;;10.82;100.00;101452.56;4990941;28;19921;-66
2023/01/04 08:33:16;;;;;;;;;;;;;;;10.79;100.00;101457.78;4991219;28;19914;-66
2023/01/04 08:35:41;;;;;;;;;;;;;;;10.84;100.00;101450.81;4992005;28;19976;-66
2023/01/04 08:38:06;;;;;;;;;;;;;;;10.89;100.00;101464.56;4974927;28;19914;-67
2023/01/04 08:40:32;;;;;;;;;;;;;;;10.86;100.00;101458.53;4996602;28;19968;-66
2023/01/04 08:42:57;;;;;;;;;;;;;;;10.86;100.00;101451.63;4992985;28;19965;-65
2023/01/04 08:45:22;;;;;;;;;;;;;;;10.96;100.00;101441.97;4996038;28;19939;-65
2023/01/04 08:47:47;;;;;;;;;;;;;;;10.92;100.00;101455.84;5001007;28;19996;-65
2023/01/04 08:50:15;;;;;;;;;;;;;;;10.96;100.00;101473.09;4993428;28;19913;-65
2023/01/04 08:52:41;;;;;;;;;;;;;;;10.96;100.00;101448.00;4993674;28;19921;-65
2023/01/04 08:55:06;;;;;;;;;;;;;;;11.02;100.00;101470.41;4997405;28;19921;-65
2023/01/04 08:57:33;;;;;;;;;;;;;;;11.02;100.00;101468.66;4978117;28;20387;-65
2023/01/04 08:59:58;;;;;;;;;;;;;;;11.04;100.00;101466.06;4986774;28;19963;-66
2023/01/04 09:02:26;;;;;;;;;;;;;;;11.08;100.00;101463.38;4979406;28;19980;-65
2023/01/04 09:04:52;;;;;;;;;;;;;;;11.08;100.00;101471.16;4997278;28;20051;-65
2023/01/04 09:07:18;;;;;;;;;;;;;;;11.17;100.00;101464.13;4997897;28;19917;-65
2023/01/04 09:09:44;;;;;;;;;;;;;;;11.24;100.00;101460.53;4994735;28;19917;-65
2023/01/04 09:12:09;;;;;;;;;;;;;;;11.24;100.00;101458.81;4997130;28;19924;-65
2023/01/04 09:14:34;;;;;;;;;;;;;;;11.24;100.00;101455.34;4994704;28;20420;-65
2023/01/04 09:16:59;;;;;;;;;;;;;;;11.32;100.00;101450.91;4978204;28;19914;-65
2023/01/04 09:19:25;;;;;;;;;;;;;;;11.28;100.00;101444.88;4984210;28;19914;-65
2023/01/04 09:21:50;;;;;;;;;;;;;;;11.20;100.00;101445.88;4981544;28;19972;-65
2023/01/04 09:24:15;;;;;;;;;;;;;;;11.26;100.00;101459.63;4982885;28;20591;-66
2023/01/04 09:26:40;;;;;;;;;;;;;;;11.20;100.00;101446.75;4982821;28;19920;-65
2023/01/04 09:29:06;;;;;;;;;;;;;;;11.24;100.00;101456.22;4988439;28;19913;-65
2023/01/04 09:31:31;;;;;;;;;;;;;;;11.27;100.00;101453.56;4987022;28;20360;-65
2023/01/04 09:33:57;;;;;;;;;;;;;;;11.27;100.00;101458.75;4995953;28;19914;-66
2023/01/04 09:36:23;;;;;;;;;;;;;;;11.26;100.00;101453.59;4974007;28;19917;-65
2023/01/04 09:38:49;;;;;;;;;;;;;;;11.26;100.00;101451.00;4986127;28;19914;-65
2023/01/04 09:41:17;;;;;;;;;;;;;;;11.25;100.00;101444.09;4991654;28;20172;-65
2023/01/04 09:43:50;;;;;;;;;;;;;;;11.17;100.00;101459.78;4994232;28;19913;-65
2023/01/04 09:46:31;;;;;;;;;;;;;;;11.08;100.00;101465.13;4988071;28;19999;-65
2023/01/04 09:49:15;;;;;;;;;;;;;;;11.10;100.00;101455.59;4990886;28;19949;-66
2023/01/04 09:51:42;;;;;;;;;;;;;;;11.06;100.00;101464.28;4994350;28;19921;-65
2023/01/04 09:54:15;;;;;;;;;;;;;;;11.01;100.00;101456.56;4990610;28;20021;-65
2023/01/04 09:56:43;;;;;;;;;;;;;;;10.98;100.00;101467.00;4995402;28;19913;-66
2023/01/04 09:59:11;;;;;;;;;;;;;;;10.98;100.00;101459.22;4975795;28;20372;-65
2023/01/04 10:01:39;;;;;;;;;;;;;;;10.97;100.00;101461.84;5001794;28;19913;-66
2023/01/04 10:04:11;;;;;;;;;;;;;;;10.97;100.00;101457.53;4996084;28;19920;-65
2023/01/04 10:06:37;;;;;;;;;;;;;;;10.99;100.00;101473.03;4999227;28;19909;-65
2023/01/04 10:09:03;;;;;;;;;;;;;;;10.94;100.00;101470.53;4995932;28;19913;-65
2023/01/04 10:11:41;;;;;;;;;;;;;;;10.95;100.00;101464.47;4991827;28;19924;-65
2023/01/04 10:14:10;;;;;;;;;;;;;;;10.92;100.00;101464.50;4990581;28;19940;-66
2023/01/04 10:16:35;;;;;;;;;;;;;;;10.90;100.00;101465.41;4990970;28;19948;-66
2023/01/04 10:19:06;;;;;;;;;;;;;;;10.93;100.00;101455.81;4993071;28;19952;-66
2023/01/04 10:21:38;;;;;;;;;;;;;;;10.87;100.00;101458.53;4993776;28;20297;-66
2023/01/04 10:24:21;;;;;;;;;;;;;;;10.86;100.00;101456.81;4996191;28;19955;-66
2023/01/04 10:26:47;;;;;;;;;;;;;;;10.90;100.00;101448.13;4976836;28;19906;-66
2023/01/04 10:29:29;;;;;;;;;;;;;;;10.90;100.00;101453.31;4994654;28;19975;-66
2023/01/04 10:32:04;;;;;;;;;;;;;;;10.91;100.00;101446.38;4991653;28;19921;-66
2023/01/04 10:34:31;;;;;;;;;;;;;;;10.89;100.00;101458.50;4988476;28;19918;-67
2023/01/04 10:36:58;;;;;;;;;;;;;;;10.90;100.00;101461.09;4990662;28;19922;-67
2023/01/04 10:39:25;;;;;;;;;;;;;;;10.88;100.00;101447.28;4991558;28;19914;-67
2023/01/04 10:41:58;;;;;;;;;;;;;;;10.87;100.00;101449.88;4988071;28;19963;-67
2023/01/04 10:44:43;;;;;;;;;;;;;;;10.91;100.00;101439.47;4990712;28;19914;-67
2023/01/04 10:47:10;;;;;;;;;;;;;;;10.92;100.00;101441.13;4993843;28;19913;-67
2023/01/04 10:49:35;;;;;;;;;;;;;;;10.91;100.00;101436.00;4992211;28;19921;-66
2023/01/04 10:52:21;;;;;;;;;;;;;;;10.92;100.00;101432.50;4994909;28;19914;-67
2023/01/04 10:54:53;;;;;;;;;;;;;;;10.88;100.00;101436.91;4981418;28;19914;-67
2023/01/04 10:57:25;;;;;;;;;;;;;;;11.01;100.00;101432.38;4995364;28;19914;-66
2023/01/04 11:00:00;;;;;;;;;;;;;;;10.89;100.00;101427.38;4995551;28;20261;-66
2023/01/04 11:02:28;;;;;;;;;;;;;;;10.91;100.00;101431.69;4993730;28;19977;-68
2023/01/04 11:05:12;;;;;;;;;;;;;;;10.94;100.00;101435.94;4995106;28;19910;-67
2023/01/04 11:07:44;;;;;;;;;;;;;;;10.97;100.00;101441.09;4995114;28;20340;-68
2023/01/04 11:10:14;;;;;;;;;;;;;;;11.01;100.00;101430.63;4994346;28;21149;-68
2023/01/04 11:12:39;;;;;;;;;;;;;;;10.93;100.00;101429.91;4993063;28;19922;-67
2023/01/04 11:15:05;;;;;;;;;;;;;;;10.93;100.00;101445.47;4996128;28;19910;-68
2023/01/04 11:17:31;;;;;;;;;;;;;;;10.97;100.00;101439.34;4989526;28;20012;-68
2023/01/04 11:19:57;;;;;;;;;;;;;;;10.94;100.00;101429.00;4997809;28;19914;-67
2023/01/04 11:22:38;;;;;;;;;;;;;;;10.94;100.00;101422.97;4991240;28;20299;-68
2023/01/04 11:25:06;;;;;;;;;;;;;;;10.99;100.00;101431.53;4995261;28;19917;-68
2023/01/04 15:51:30;;;;;;;29.08;9.13;;;;;;;11.24;100.00;101388.75;5018780;28;20403;-69
2023/01/04 15:53:55;;;;;;;30.08;8.85;;;;;;;11.24;100.00;101385.28;5022298;28;20038;-69
2023/01/04 15:56:21;;;;;;;24.05;7.82;;;;;;;11.22;100.00;101385.31;5022171;28;20060;-69
2023/01/04 15:58:53;;;;;;;25.02;6.90;;;;;;;11.21;100.00;101380.13;5010662;28;20076;-69
2023/01/04 16:01:19;;;;;;;23.48;7.55;;;;;;;11.21;100.00;101385.34;5026895;28;20037;-70
2023/01/04 16:03:44;;;;;;;28.25;7.93;;;;;;;11.19;100.00;101366.38;5026954;28;20022;-68
2023/01/04 16:06:12;;;;;;;25.40;6.90;;;;;;;11.20;100.00;101378.44;5022407;28;20032;-70
2023/01/04 16:08:39;;;;;;;24.45;6.38;;;;;;;11.19;100.00;101377.56;5013484;28;20034;-70
2023/01/04 16:11:13;;;;;;;22.80;6.03;;;;;;;11.21;100.00;101372.34;5013539;28;20029;-70
2023/01/04 16:13:39;;;;;;;18.20;5.63;;;;;;;11.21;100.00;101380.13;5025356;28;20439;-69
2023/01/04 16:16:05;;;;;;;28.92;6.10;;;;;;;11.22;100.00;101381.84;5012981;28;20484;-70
2023/01/04 16:18:31;;;;;;;23.58;5.45;;;;;;;11.21;100.00;101377.53;5015208;28;20034;-67
2023/01/04 16:20:56;;;;;;;24.45;5.30;;;;;;;11.18;100.00;101377.63;5023301;28;20022;-68
2023/01/04 16:23:21;;;;;;;23.33;5.15;;;;;;;11.15;100.00;101372.47;5013177;28;20053;-68
2023/01/04 16:25:47;;;;;;;23.27;5.45;;;;;;;11.15;100.00;101370.72;5018733;28;20033;-68
2023/01/04 16:28:12;;;;;;;28.05;5.20;;;;;;;11.15;100.00;101378.50;5021792;28;20160;-68
2023/01/04 16:30:37;;;;;;;21.92;5.20;;;;;;;11.11;100.00;101370.81;5014521;28;20033;-68
2023/01/04 16:33:03;;;;;;;22.65;5.70;;;;;;;11.11;100.00;101366.50;5005170;28;20041;-68
2023/01/04 16:35:28;;;;;;;21.45;5.90;;;;;;;11.11;100.00;101355.25;5005354;28;20026;-68
2023/01/04 16:37:53;;;;;;;22.80;6.43;;;;;;;11.09;100.00;101363.91;5020824;28;20483;-68
2023/01/04 16:40:19;;;;;;;21.83;7.40;;;;;;;11.07;100.00;101364.81;5008857;28;20122;-68
2023/01/04 16:42:49;;;;;;;26.23;7.78;;;;;;;11.05;100.00;101380.41;5013651;28;20025;-68
2023/01/04 16:45:15;;;;;;;28.15;8.75;;;;;;;11.12;100.00;101383.78;5007469;28;20120;-68
2023/01/04 16:47:42;;;;;;;28.25;9.18;;;;;;;11.09;100.00;101387.25;5010138;28;20030;-68
2023/01/04 16:50:09;;;;;;;26.40;9.27;;;;;;;11.08;100.00;101385.53;5037157;28;20049;-68
2023/01/04 16:52:34;;;;;;;30.15;10.85;;;;;;;11.10;100.00;101393.31;5035255;28;20059;-68
2023/01/04 16:54:59;;;;;;;29.83;9.82;;;;;;;11.11;100.00;101401.97;5038047;28;20053;-67
2023/01/04 16:57:25;;;;;;;27.33;9.65;;;;;;;11.11;100.00;101401.97;5038607;28;20694;-67
2023/01/04 16:59:50;;;;;;;29.90;9.63;;;;;;;11.15;100.00;101412.25;5037195;28;20029;-67
2023/01/04 17:02:16;;;;;;;31.58;10.38;;;;;;;11.15;100.00;101416.56;5035940;28;20506;-67
2023/01/04 17:04:41;;;;;;;29.98;10.20;;;;;;;11.15;100.00;101408.78;5034322;28;20083;-67
2023/01/04 17:07:06;;;;;;;23.90;8.65;;;;;;;11.14;100.00;101402.75;5024117;28;20112;-68
2023/01/04 17:09:32;;;;;;;31.70;8.63;;;;;;;11.17;100.00;101396.66;5045965;28;20036;-68
2023/01/04 17:11:59;;;;;;;28.55;8.82;;;;;;;11.16;100.00;101389.75;5046281;28;20045;-67
2023/01/04 17:14:26;;;;;;;35.35;8.73;;;;;;;11.15;100.00;101388.91;5037472;28;20021;-67
2023/01/04 17:16:52;;;;;;;27.60;7.72;;;;;;;11.16;100.00;101392.34;5035966;28;20029;-68
2023/01/04 17:19:18;;;;;;;26.67;6.60;;;;;;;11.16;100.00;101400.13;5031968;28;20038;-67
2023/01/04 17:21:44;;;;;;;29.38;7.00;;;;;;;11.15;100.00;101404.47;5045714;28;20036;-67
2023/01/04 17:24:10;;;;;;;27.15;6.68;;;;;;;11.12;100.00;101406.28;5041001;28;20065;-67
2023/01/04 17:26:35;;;;;;;28.27;5.97;;;;;;;11.11;100.00;101410.59;5035926;28;20049;-67
2023/01/04 17:29:01;;;;;;;30.35;7.03;;;;;;;11.12;100.00;101408.88;5044696;28;20033;-67
2023/01/04 17:31:29;;;;;;;32.70;6.88;;;;;;;11.11;100.00;101409.75;5036532;28;20029;-67